sensor_id;sensor_type;location;lat;lon;timestamp;P1;durP1;ratioP1;P2;durP2;ratioP2
11439;SDS011;5776;51.814;4.510;2022-07-29T00:01:15;2.13;;;1.02;;
11439;SDS011;5776;51.814;4.510;2022-07-29T00:03:42;3.47;;;0.80;;
11439;SDS011;5776;51.814;4.510;2022-07-29T00:06:08;1.63;;;0.70;;
11439;SDS011;5776;51.814;4.510;2022-07-29T00:08:34;3.88;;;1.00;;
11439;SDS011;5776;51.814;4.510;2022-07-29T00:11:00;3.20;;;1.23;;
11439;SDS011;5776;51.814;4.510;2022-07-29T00:13:26;3.92;;;0.93;;
11439;SDS011;5776;51.814;4.510;2022-07-29T00:15:52;2.72;;;0.80;;
11439;SDS011;5776;51.814;4.510;2022-07-29T00:18:18;4.43;;;1.10;;
11439;SDS011;5776;51.814;4.510;2022-07-29T00:20:43;1.13;;;0.90;;
11439;SDS011;5776;51.814;4.510;2022-07-29T00:23:09;2.15;;;0.88;;
11439;SDS011;5776;51.814;4.510;2022-07-29T00:25:35;1.98;;;0.90;;
11439;SDS011;5776;51.814;4.510;2022-07-29T00:28:01;1.88;;;0.85;;
11439;SDS011;5776;51.814;4.510;2022-07-29T00:30:27;6.55;;;1.45;;
11439;SDS011;5776;51.814;4.510;2022-07-29T00:32:53;2.85;;;0.85;;
11439;SDS011;5776;51.814;4.510;2022-07-29T00:35:19;3.28;;;0.90;;
11439;SDS011;5776;51.814;4.510;2022-07-29T00:38:03;3.65;;;0.88;;
11439;SDS011;5776;51.814;4.510;2022-07-29T00:40:29;2.22;;;0.77;;
11439;SDS011;5776;51.814;4.510;2022-07-29T00:42:55;2.83;;;0.70;;
11439;SDS011;5776;51.814;4.510;2022-07-29T00:45:21;2.33;;;1.05;;
11439;SDS011;5776;51.814;4.510;2022-07-29T00:47:48;1.38;;;0.90;;
11439;SDS011;5776;51.814;4.510;2022-07-29T00:50:14;1.80;;;0.88;;
11439;SDS011;5776;51.814;4.510;2022-07-29T00:52:41;4.40;;;1.00;;
11439;SDS011;5776;51.814;4.510;2022-07-29T00:55:09;6.03;;;0.80;;
11439;SDS011;5776;51.814;4.510;2022-07-29T00:57:37;4.88;;;1.35;;
11439;SDS011;5776;51.814;4.510;2022-07-29T01:00:04;2.67;;;0.70;;
11439;SDS011;5776;51.814;4.510;2022-07-29T01:02:32;1.38;;;0.70;;
11439;SDS011;5776;51.814;4.510;2022-07-29T01:04:58;6.60;;;0.88;;
11439;SDS011;5776;51.814;4.510;2022-07-29T01:07:25;2.50;;;0.88;;
11439;SDS011;5776;51.814;4.510;2022-07-29T01:09:53;2.17;;;0.95;;
11439;SDS011;5776;51.814;4.510;2022-07-29T01:12:24;4.28;;;0.90;;
11439;SDS011;5776;51.814;4.510;2022-07-29T01:14:52;2.65;;;1.02;;
11439;SDS011;5776;51.814;4.510;2022-07-29T01:17:22;4.10;;;0.77;;
11439;SDS011;5776;51.814;4.510;2022-07-29T01:19:54;2.33;;;0.93;;
11439;SDS011;5776;51.814;4.510;2022-07-29T01:28:03;3.03;;;0.88;;
11439;SDS011;5776;51.814;4.510;2022-07-29T01:30:33;2.75;;;0.90;;
11439;SDS011;5776;51.814;4.510;2022-07-29T01:33:04;2.25;;;0.90;;
11439;SDS011;5776;51.814;4.510;2022-07-29T01:35:36;5.22;;;1.10;;
11439;SDS011;5776;51.814;4.510;2022-07-29T01:38:09;3.50;;;1.10;;
11439;SDS011;5776;51.814;4.510;2022-07-29T01:43:27;1.80;;;1.02;;
11439;SDS011;5776;51.814;4.510;2022-07-29T01:46:05;2.47;;;0.90;;
11439;SDS011;5776;51.814;4.510;2022-07-29T01:48:40;1.70;;;0.88;;
11439;SDS011;5776;51.814;4.510;2022-07-29T01:51:18;2.08;;;0.75;;
11439;SDS011;5776;51.814;4.510;2022-07-29T01:53:47;2.20;;;0.98;;
11439;SDS011;5776;51.814;4.510;2022-07-29T01:56:20;2.15;;;1.00;;
11439;SDS011;5776;51.814;4.510;2022-07-29T01:58:49;5.20;;;1.10;;
11439;SDS011;5776;51.814;4.510;2022-07-29T02:01:18;2.13;;;0.80;;
11439;SDS011;5776;51.814;4.510;2022-07-29T02:03:46;2.28;;;0.88;;
11439;SDS011;5776;51.814;4.510;2022-07-29T02:06:14;5.20;;;1.23;;
11439;SDS011;5776;51.814;4.510;2022-07-29T02:08:44;4.85;;;1.05;;
11439;SDS011;5776;51.814;4.510;2022-07-29T02:11:12;3.33;;;0.90;;
11439;SDS011;5776;51.814;4.510;2022-07-29T02:13:38;4.82;;;1.13;;
11439;SDS011;5776;51.814;4.510;2022-07-29T02:16:06;4.78;;;1.25;;
11439;SDS011;5776;51.814;4.510;2022-07-29T02:18:35;2.25;;;0.85;;
11439;SDS011;5776;51.814;4.510;2022-07-29T02:21:04;5.15;;;1.00;;
11439;SDS011;5776;51.814;4.510;2022-07-29T02:23:31;4.70;;;1.30;;
11439;SDS011;5776;51.814;4.510;2022-07-29T02:25:59;2.72;;;0.90;;
11439;SDS011;5776;51.814;4.510;2022-07-29T02:28:25;3.70;;;0.82;;
11439;SDS011;5776;51.814;4.510;2022-07-29T02:30:55;3.80;;;0.80;;
11439;SDS011;5776;51.814;4.510;2022-07-29T02:33:24;5.28;;;0.85;;
11439;SDS011;5776;51.814;4.510;2022-07-29T02:35:51;4.88;;;1.02;;
11439;SDS011;5776;51.814;4.510;2022-07-29T02:38:18;7.13;;;0.93;;
11439;SDS011;5776;51.814;4.510;2022-07-29T02:41:10;5.03;;;1.20;;
11439;SDS011;5776;51.814;4.510;2022-07-29T02:43:39;3.97;;;1.13;;
11439;SDS011;5776;51.814;4.510;2022-07-29T02:46:08;4.63;;;1.27;;
11439;SDS011;5776;51.814;4.510;2022-07-29T02:48:41;4.25;;;0.98;;
11439;SDS011;5776;51.814;4.510;2022-07-29T02:51:18;2.30;;;0.80;;
11439;SDS011;5776;51.814;4.510;2022-07-29T02:53:53;3.03;;;1.23;;
11439;SDS011;5776;51.814;4.510;2022-07-29T02:56:23;4.63;;;1.25;;
11439;SDS011;5776;51.814;4.510;2022-07-29T02:58:53;3.72;;;0.98;;
11439;SDS011;5776;51.814;4.510;2022-07-29T03:01:25;3.70;;;0.98;;
11439;SDS011;5776;51.814;4.510;2022-07-29T03:03:55;2.55;;;1.02;;
11439;SDS011;5776;51.814;4.510;2022-07-29T03:06:23;3.30;;;1.10;;
11439;SDS011;5776;51.814;4.510;2022-07-29T03:08:51;2.78;;;1.02;;
11439;SDS011;5776;51.814;4.510;2022-07-29T03:11:17;3.03;;;1.00;;
11439;SDS011;5776;51.814;4.510;2022-07-29T03:13:44;2.47;;;1.10;;
11439;SDS011;5776;51.814;4.510;2022-07-29T03:16:10;2.95;;;1.30;;
11439;SDS011;5776;51.814;4.510;2022-07-29T03:18:38;4.03;;;1.20;;
11439;SDS011;5776;51.814;4.510;2022-07-29T03:21:04;2.45;;;0.93;;
11439;SDS011;5776;51.814;4.510;2022-07-29T03:23:32;1.60;;;1.02;;
11439;SDS011;5776;51.814;4.510;2022-07-29T03:25:58;4.25;;;1.00;;
11439;SDS011;5776;51.814;4.510;2022-07-29T03:28:24;3.00;;;1.08;;
11439;SDS011;5776;51.814;4.510;2022-07-29T03:30:52;5.82;;;1.63;;
11439;SDS011;5776;51.814;4.510;2022-07-29T03:33:18;2.90;;;1.00;;
11439;SDS011;5776;51.814;4.510;2022-07-29T03:35:44;3.88;;;1.20;;
11439;SDS011;5776;51.814;4.510;2022-07-29T03:38:10;4.57;;;1.10;;
11439;SDS011;5776;51.814;4.510;2022-07-29T03:40:49;3.65;;;1.23;;
11439;SDS011;5776;51.814;4.510;2022-07-29T03:43:21;3.10;;;1.02;;
11439;SDS011;5776;51.814;4.510;2022-07-29T03:45:49;5.78;;;1.33;;
11439;SDS011;5776;51.814;4.510;2022-07-29T03:48:19;1.50;;;0.70;;
11439;SDS011;5776;51.814;4.510;2022-07-29T03:50:47;3.45;;;0.98;;
11439;SDS011;5776;51.814;4.510;2022-07-29T03:53:15;4.47;;;1.00;;
11439;SDS011;5776;51.814;4.510;2022-07-29T03:55:42;4.38;;;1.17;;
11439;SDS011;5776;51.814;4.510;2022-07-29T03:58:12;1.98;;;1.25;;
11439;SDS011;5776;51.814;4.510;2022-07-29T04:00:40;2.88;;;1.00;;
11439;SDS011;5776;51.814;4.510;2022-07-29T04:03:08;1.42;;;1.00;;
11439;SDS011;5776;51.814;4.510;2022-07-29T04:05:34;2.90;;;1.10;;
11439;SDS011;5776;51.814;4.510;2022-07-29T04:08:00;2.75;;;1.25;;
11439;SDS011;5776;51.814;4.510;2022-07-29T04:10:26;3.63;;;1.50;;
11439;SDS011;5776;51.814;4.510;2022-07-29T04:12:52;5.03;;;1.80;;
11439;SDS011;5776;51.814;4.510;2022-07-29T04:15:19;5.57;;;1.70;;
11439;SDS011;5776;51.814;4.510;2022-07-29T04:17:45;4.30;;;1.40;;
11439;SDS011;5776;51.814;4.510;2022-07-29T04:20:11;3.63;;;1.50;;
11439;SDS011;5776;51.814;4.510;2022-07-29T04:22:40;3.05;;;1.58;;
11439;SDS011;5776;51.814;4.510;2022-07-29T04:25:06;3.08;;;1.40;;
11439;SDS011;5776;51.814;4.510;2022-07-29T04:27:32;2.83;;;1.02;;
11439;SDS011;5776;51.814;4.510;2022-07-29T04:29:58;4.07;;;1.33;;
11439;SDS011;5776;51.814;4.510;2022-07-29T04:32:24;2.58;;;1.23;;
11439;SDS011;5776;51.814;4.510;2022-07-29T04:34:50;4.82;;;1.27;;
11439;SDS011;5776;51.814;4.510;2022-07-29T04:37:16;2.30;;;1.20;;
11439;SDS011;5776;51.814;4.510;2022-07-29T04:39:42;2.72;;;1.10;;
11439;SDS011;5776;51.814;4.510;2022-07-29T04:42:08;2.13;;;1.40;;
11439;SDS011;5776;51.814;4.510;2022-07-29T04:44:34;7.07;;;1.65;;
11439;SDS011;5776;51.814;4.510;2022-07-29T04:47:00;2.78;;;1.30;;
11439;SDS011;5776;51.814;4.510;2022-07-29T04:49:26;4.70;;;1.35;;
11439;SDS011;5776;51.814;4.510;2022-07-29T04:51:52;3.63;;;1.75;;
11439;SDS011;5776;51.814;4.510;2022-07-29T04:54:18;2.95;;;1.42;;
11439;SDS011;5776;51.814;4.510;2022-07-29T04:56:44;2.08;;;1.23;;
11439;SDS011;5776;51.814;4.510;2022-07-29T04:59:11;6.28;;;1.60;;
11439;SDS011;5776;51.814;4.510;2022-07-29T05:01:37;3.92;;;1.30;;
11439;SDS011;5776;51.814;4.510;2022-07-29T05:04:03;2.90;;;1.33;;
11439;SDS011;5776;51.814;4.510;2022-07-29T05:06:29;2.70;;;1.38;;
11439;SDS011;5776;51.814;4.510;2022-07-29T05:08:55;7.10;;;2.28;;
11439;SDS011;5776;51.814;4.510;2022-07-29T05:11:21;3.95;;;1.55;;
11439;SDS011;5776;51.814;4.510;2022-07-29T05:13:47;3.53;;;1.55;;
11439;SDS011;5776;51.814;4.510;2022-07-29T05:16:13;3.25;;;1.55;;
11439;SDS011;5776;51.814;4.510;2022-07-29T05:18:39;4.75;;;1.20;;
11439;SDS011;5776;51.814;4.510;2022-07-29T05:21:05;5.28;;;1.42;;
11439;SDS011;5776;51.814;4.510;2022-07-29T05:23:31;3.35;;;1.20;;
11439;SDS011;5776;51.814;4.510;2022-07-29T05:25:57;5.22;;;1.88;;
11439;SDS011;5776;51.814;4.510;2022-07-29T05:28:23;3.35;;;1.20;;
11439;SDS011;5776;51.814;4.510;2022-07-29T05:30:49;2.25;;;1.40;;
11439;SDS011;5776;51.814;4.510;2022-07-29T05:33:15;2.92;;;1.50;;
11439;SDS011;5776;51.814;4.510;2022-07-29T05:35:41;3.40;;;1.63;;
11439;SDS011;5776;51.814;4.510;2022-07-29T05:38:07;3.85;;;1.50;;
11439;SDS011;5776;51.814;4.510;2022-07-29T05:40:32;3.92;;;1.40;;
11439;SDS011;5776;51.814;4.510;2022-07-29T05:42:59;2.20;;;1.38;;
11439;SDS011;5776;51.814;4.510;2022-07-29T05:45:25;3.90;;;1.67;;
11439;SDS011;5776;51.814;4.510;2022-07-29T05:47:51;3.25;;;1.60;;
11439;SDS011;5776;51.814;4.510;2022-07-29T05:50:16;4.35;;;1.42;;
11439;SDS011;5776;51.814;4.510;2022-07-29T05:52:42;5.15;;;1.55;;
11439;SDS011;5776;51.814;4.510;2022-07-29T05:55:09;3.97;;;1.55;;
11439;SDS011;5776;51.814;4.510;2022-07-29T05:57:35;5.90;;;1.55;;
11439;SDS011;5776;51.814;4.510;2022-07-29T06:00:01;3.25;;;1.77;;
11439;SDS011;5776;51.814;4.510;2022-07-29T06:02:27;2.60;;;1.30;;
11439;SDS011;5776;51.814;4.510;2022-07-29T06:04:53;5.40;;;1.85;;
11439;SDS011;5776;51.814;4.510;2022-07-29T06:07:19;5.18;;;1.60;;
11439;SDS011;5776;51.814;4.510;2022-07-29T06:09:45;4.00;;;1.40;;
11439;SDS011;5776;51.814;4.510;2022-07-29T06:12:11;5.05;;;1.52;;
11439;SDS011;5776;51.814;4.510;2022-07-29T06:14:37;3.78;;;2.05;;
11439;SDS011;5776;51.814;4.510;2022-07-29T06:17:04;3.90;;;1.60;;
11439;SDS011;5776;51.814;4.510;2022-07-29T06:19:31;6.97;;;1.50;;
11439;SDS011;5776;51.814;4.510;2022-07-29T06:21:59;6.20;;;1.40;;
11439;SDS011;5776;51.814;4.510;2022-07-29T06:24:25;4.35;;;1.48;;
11439;SDS011;5776;51.814;4.510;2022-07-29T06:26:51;9.70;;;1.90;;
11439;SDS011;5776;51.814;4.510;2022-07-29T06:29:16;3.83;;;1.30;;
11439;SDS011;5776;51.814;4.510;2022-07-29T06:31:42;3.95;;;1.85;;
11439;SDS011;5776;51.814;4.510;2022-07-29T06:34:08;2.75;;;1.67;;
11439;SDS011;5776;51.814;4.510;2022-07-29T06:36:35;5.03;;;1.75;;
11439;SDS011;5776;51.814;4.510;2022-07-29T06:39:06;6.15;;;1.92;;
11439;SDS011;5776;51.814;4.510;2022-07-29T06:41:33;3.63;;;1.42;;
11439;SDS011;5776;51.814;4.510;2022-07-29T06:43:59;3.38;;;1.90;;
11439;SDS011;5776;51.814;4.510;2022-07-29T06:46:25;5.22;;;1.80;;
11439;SDS011;5776;51.814;4.510;2022-07-29T06:48:53;6.75;;;1.90;;
11439;SDS011;5776;51.814;4.510;2022-07-29T06:51:19;2.72;;;1.58;;
11439;SDS011;5776;51.814;4.510;2022-07-29T06:53:46;2.58;;;1.23;;
11439;SDS011;5776;51.814;4.510;2022-07-29T06:56:12;3.65;;;1.40;;
11439;SDS011;5776;51.814;4.510;2022-07-29T06:58:39;3.05;;;1.83;;
11439;SDS011;5776;51.814;4.510;2022-07-29T07:01:05;5.15;;;1.65;;
11439;SDS011;5776;51.814;4.510;2022-07-29T07:03:32;4.18;;;1.80;;
11439;SDS011;5776;51.814;4.510;2022-07-29T07:05:58;3.95;;;1.50;;
11439;SDS011;5776;51.814;4.510;2022-07-29T07:08:24;5.97;;;1.30;;
11439;SDS011;5776;51.814;4.510;2022-07-29T07:10:50;5.30;;;1.70;;
11439;SDS011;5776;51.814;4.510;2022-07-29T07:13:17;4.32;;;1.65;;
11439;SDS011;5776;51.814;4.510;2022-07-29T07:15:44;4.15;;;1.45;;
11439;SDS011;5776;51.814;4.510;2022-07-29T07:18:13;3.72;;;1.52;;
11439;SDS011;5776;51.814;4.510;2022-07-29T07:20:40;3.80;;;1.33;;
11439;SDS011;5776;51.814;4.510;2022-07-29T07:23:13;3.58;;;1.70;;
11439;SDS011;5776;51.814;4.510;2022-07-29T07:25:39;3.63;;;1.70;;
11439;SDS011;5776;51.814;4.510;2022-07-29T07:28:05;4.88;;;1.80;;
11439;SDS011;5776;51.814;4.510;2022-07-29T07:30:31;2.67;;;1.63;;
11439;SDS011;5776;51.814;4.510;2022-07-29T07:32:57;3.70;;;1.25;;
11439;SDS011;5776;51.814;4.510;2022-07-29T07:35:23;5.80;;;1.67;;
11439;SDS011;5776;51.814;4.510;2022-07-29T07:37:49;2.65;;;1.20;;
11439;SDS011;5776;51.814;4.510;2022-07-29T07:40:15;5.10;;;1.58;;
11439;SDS011;5776;51.814;4.510;2022-07-29T07:42:41;7.25;;;1.90;;
11439;SDS011;5776;51.814;4.510;2022-07-29T07:45:07;4.85;;;2.00;;
11439;SDS011;5776;51.814;4.510;2022-07-29T07:47:38;1.77;;;1.33;;
11439;SDS011;5776;51.814;4.510;2022-07-29T07:50:05;4.85;;;1.48;;
11439;SDS011;5776;51.814;4.510;2022-07-29T07:52:33;6.07;;;1.75;;
11439;SDS011;5776;51.814;4.510;2022-07-29T07:54:59;3.10;;;1.70;;
11439;SDS011;5776;51.814;4.510;2022-07-29T07:57:26;2.10;;;1.00;;
11439;SDS011;5776;51.814;4.510;2022-07-29T07:59:52;7.25;;;1.55;;
11439;SDS011;5776;51.814;4.510;2022-07-29T08:02:18;3.13;;;1.50;;
11439;SDS011;5776;51.814;4.510;2022-07-29T08:04:44;5.25;;;1.35;;
11439;SDS011;5776;51.814;4.510;2022-07-29T08:07:10;5.55;;;1.58;;
11439;SDS011;5776;51.814;4.510;2022-07-29T08:09:36;4.03;;;1.73;;
11439;SDS011;5776;51.814;4.510;2022-07-29T08:12:02;4.18;;;1.80;;
11439;SDS011;5776;51.814;4.510;2022-07-29T08:14:30;4.35;;;1.42;;
11439;SDS011;5776;51.814;4.510;2022-07-29T08:16:57;4.43;;;1.52;;
11439;SDS011;5776;51.814;4.510;2022-07-29T08:19:23;3.33;;;1.60;;
11439;SDS011;5776;51.814;4.510;2022-07-29T08:21:49;2.97;;;1.65;;
11439;SDS011;5776;51.814;4.510;2022-07-29T08:24:15;5.78;;;1.45;;
11439;SDS011;5776;51.814;4.510;2022-07-29T08:26:59;3.38;;;1.50;;
11439;SDS011;5776;51.814;4.510;2022-07-29T08:29:25;5.22;;;1.90;;
11439;SDS011;5776;51.814;4.510;2022-07-29T08:31:51;3.58;;;1.55;;
11439;SDS011;5776;51.814;4.510;2022-07-29T08:34:17;5.78;;;1.70;;
11439;SDS011;5776;51.814;4.510;2022-07-29T08:36:43;3.05;;;1.30;;
11439;SDS011;5776;51.814;4.510;2022-07-29T08:39:09;5.40;;;1.70;;
11439;SDS011;5776;51.814;4.510;2022-07-29T08:41:35;4.28;;;1.70;;
11439;SDS011;5776;51.814;4.510;2022-07-29T08:44:01;3.05;;;1.38;;
11439;SDS011;5776;51.814;4.510;2022-07-29T08:46:27;3.45;;;1.50;;
11439;SDS011;5776;51.814;4.510;2022-07-29T08:48:53;4.22;;;1.83;;
11439;SDS011;5776;51.814;4.510;2022-07-29T08:51:21;5.90;;;2.15;;
11439;SDS011;5776;51.814;4.510;2022-07-29T08:53:48;3.90;;;1.27;;
11439;SDS011;5776;51.814;4.510;2022-07-29T08:56:15;6.75;;;2.20;;
11439;SDS011;5776;51.814;4.510;2022-07-29T08:58:45;5.25;;;1.40;;
11439;SDS011;5776;51.814;4.510;2022-07-29T09:01:16;6.20;;;1.80;;
11439;SDS011;5776;51.814;4.510;2022-07-29T09:03:46;8.68;;;2.08;;
11439;SDS011;5776;51.814;4.510;2022-07-29T09:06:13;3.63;;;1.40;;
11439;SDS011;5776;51.814;4.510;2022-07-29T09:08:40;7.00;;;1.80;;
11439;SDS011;5776;51.814;4.510;2022-07-29T09:11:06;6.00;;;1.80;;
11439;SDS011;5776;51.814;4.510;2022-07-29T09:13:32;4.05;;;1.70;;
11439;SDS011;5776;51.814;4.510;2022-07-29T09:15:59;4.50;;;1.42;;
11439;SDS011;5776;51.814;4.510;2022-07-29T09:18:41;4.50;;;1.55;;
11439;SDS011;5776;51.814;4.510;2022-07-29T09:21:09;4.55;;;2.00;;
11439;SDS011;5776;51.814;4.510;2022-07-29T09:24:09;3.65;;;1.92;;
11439;SDS011;5776;51.814;4.510;2022-07-29T09:26:38;3.30;;;1.75;;
11439;SDS011;5776;51.814;4.510;2022-07-29T09:29:09;6.28;;;1.75;;
11439;SDS011;5776;51.814;4.510;2022-07-29T09:31:46;5.72;;;1.70;;
11439;SDS011;5776;51.814;4.510;2022-07-29T09:34:16;4.88;;;1.77;;
11439;SDS011;5776;51.814;4.510;2022-07-29T09:36:48;6.05;;;1.63;;
11439;SDS011;5776;51.814;4.510;2022-07-29T09:39:16;7.25;;;2.00;;
11439;SDS011;5776;51.814;4.510;2022-07-29T09:41:53;7.15;;;1.70;;
11439;SDS011;5776;51.814;4.510;2022-07-29T09:44:21;5.10;;;1.70;;
11439;SDS011;5776;51.814;4.510;2022-07-29T09:47:02;3.95;;;1.60;;
11439;SDS011;5776;51.814;4.510;2022-07-29T09:49:33;5.22;;;1.70;;
11439;SDS011;5776;51.814;4.510;2022-07-29T09:52:15;3.45;;;1.10;;
11439;SDS011;5776;51.814;4.510;2022-07-29T09:54:41;2.90;;;1.23;;
11439;SDS011;5776;51.814;4.510;2022-07-29T09:57:08;1.95;;;1.30;;
11439;SDS011;5776;51.814;4.510;2022-07-29T09:59:56;2.13;;;1.30;;
11439;SDS011;5776;51.814;4.510;2022-07-29T10:02:36;8.48;;;1.42;;
11439;SDS011;5776;51.814;4.510;2022-07-29T10:05:04;8.65;;;1.40;;
11439;SDS011;5776;51.814;4.510;2022-07-29T10:07:44;3.20;;;1.30;;
11439;SDS011;5776;51.814;4.510;2022-07-29T10:10:17;4.70;;;1.50;;
11439;SDS011;5776;51.814;4.510;2022-07-29T10:12:49;3.05;;;1.70;;
11439;SDS011;5776;51.814;4.510;2022-07-29T10:15:16;4.32;;;1.00;;
11439;SDS011;5776;51.814;4.510;2022-07-29T10:17:43;3.72;;;1.35;;
11439;SDS011;5776;51.814;4.510;2022-07-29T10:20:10;3.50;;;1.23;;
11439;SDS011;5776;51.814;4.510;2022-07-29T10:22:36;3.33;;;1.00;;
11439;SDS011;5776;51.814;4.510;2022-07-29T10:25:02;4.03;;;1.20;;
11439;SDS011;5776;51.814;4.510;2022-07-29T10:27:28;5.13;;;1.35;;
11439;SDS011;5776;51.814;4.510;2022-07-29T10:29:54;3.65;;;1.23;;
11439;SDS011;5776;51.814;4.510;2022-07-29T10:37:37;4.20;;;1.10;;
11439;SDS011;5776;51.814;4.510;2022-07-29T10:43:41;6.30;;;1.58;;
11439;SDS011;5776;51.814;4.510;2022-07-29T10:46:09;3.35;;;1.30;;
11439;SDS011;5776;51.814;4.510;2022-07-29T10:49:03;6.03;;;1.40;;
11439;SDS011;5776;51.814;4.510;2022-07-29T10:54:19;5.13;;;1.30;;
11439;SDS011;5776;51.814;4.510;2022-07-29T10:57:14;3.30;;;1.27;;
11439;SDS011;5776;51.814;4.510;2022-07-29T10:59:40;4.13;;;1.02;;
11439;SDS011;5776;51.814;4.510;2022-07-29T11:02:40;2.80;;;1.20;;
11439;SDS011;5776;51.814;4.510;2022-07-29T11:05:05;2.97;;;0.77;;
11439;SDS011;5776;51.814;4.510;2022-07-29T11:07:34;4.57;;;0.98;;
11439;SDS011;5776;51.814;4.510;2022-07-29T11:15:11;1.38;;;0.80;;
11439;SDS011;5776;51.814;4.510;2022-07-29T11:23:22;5.45;;;1.88;;
11439;SDS011;5776;51.814;4.510;2022-07-29T11:26:13;6.05;;;1.20;;
11439;SDS011;5776;51.814;4.510;2022-07-29T11:29:03;6.30;;;1.48;;
11439;SDS011;5776;51.814;4.510;2022-07-29T11:31:43;5.63;;;1.30;;
11439;SDS011;5776;51.814;4.510;2022-07-29T11:34:17;2.58;;;1.20;;
11439;SDS011;5776;51.814;4.510;2022-07-29T11:39:34;7.38;;;1.35;;
11439;SDS011;5776;51.814;4.510;2022-07-29T11:47:25;6.35;;;1.27;;
11439;SDS011;5776;51.814;4.510;2022-07-29T11:49:53;4.22;;;1.77;;
11439;SDS011;5776;51.814;4.510;2022-07-29T11:52:20;3.83;;;1.67;;
11439;SDS011;5776;51.814;4.510;2022-07-29T11:54:47;6.65;;;2.03;;
11439;SDS011;5776;51.814;4.510;2022-07-29T11:57:19;4.65;;;1.70;;
11439;SDS011;5776;51.814;4.510;2022-07-29T11:59:46;8.07;;;1.65;;
11439;SDS011;5776;51.814;4.510;2022-07-29T12:02:13;6.78;;;1.73;;
11439;SDS011;5776;51.814;4.510;2022-07-29T12:04:54;5.47;;;1.73;;
11439;SDS011;5776;51.814;4.510;2022-07-29T12:07:32;7.00;;;1.88;;
11439;SDS011;5776;51.814;4.510;2022-07-29T12:10:00;4.18;;;1.73;;
11439;SDS011;5776;51.814;4.510;2022-07-29T12:12:26;10.02;;;2.28;;
11439;SDS011;5776;51.814;4.510;2022-07-29T12:14:53;4.28;;;1.83;;
11439;SDS011;5776;51.814;4.510;2022-07-29T12:17:54;3.72;;;1.52;;
11439;SDS011;5776;51.814;4.510;2022-07-29T12:20:13;5.15;;;1.80;;
11439;SDS011;5776;51.814;4.510;2022-07-29T12:22:47;7.22;;;2.15;;
11439;SDS011;5776;51.814;4.510;2022-07-29T12:25:14;6.68;;;1.52;;
11439;SDS011;5776;51.814;4.510;2022-07-29T12:27:42;8.48;;;1.80;;
11439;SDS011;5776;51.814;4.510;2022-07-29T12:30:15;2.97;;;1.35;;
11439;SDS011;5776;51.814;4.510;2022-07-29T12:32:42;3.72;;;2.08;;
11439;SDS011;5776;51.814;4.510;2022-07-29T12:35:17;10.98;;;2.15;;
11439;SDS011;5776;51.814;4.510;2022-07-29T12:37:45;6.20;;;2.13;;
11439;SDS011;5776;51.814;4.510;2022-07-29T12:40:17;4.28;;;1.90;;
11439;SDS011;5776;51.814;4.510;2022-07-29T12:45:33;4.57;;;1.40;;
11439;SDS011;5776;51.814;4.510;2022-07-29T12:47:59;6.28;;;1.60;;
11439;SDS011;5776;51.814;4.510;2022-07-29T12:50:25;6.03;;;2.20;;
11439;SDS011;5776;51.814;4.510;2022-07-29T12:52:51;5.63;;;2.10;;
11439;SDS011;5776;51.814;4.510;2022-07-29T12:58:10;4.55;;;1.98;;
11439;SDS011;5776;51.814;4.510;2022-07-29T13:00:36;4.72;;;1.98;;
11439;SDS011;5776;51.814;4.510;2022-07-29T13:03:02;4.90;;;2.13;;
11439;SDS011;5776;51.814;4.510;2022-07-29T13:05:41;5.32;;;1.92;;
11439;SDS011;5776;51.814;4.510;2022-07-29T13:08:09;8.73;;;2.35;;
11439;SDS011;5776;51.814;4.510;2022-07-29T13:10:40;7.38;;;2.20;;
11439;SDS011;5776;51.814;4.510;2022-07-29T13:13:14;4.40;;;2.20;;
11439;SDS011;5776;51.814;4.510;2022-07-29T13:15:41;10.27;;;3.05;;
11439;SDS011;5776;51.814;4.510;2022-07-29T13:20:55;6.78;;;2.20;;
11439;SDS011;5776;51.814;4.510;2022-07-29T13:23:21;7.60;;;2.38;;
11439;SDS011;5776;51.814;4.510;2022-07-29T13:25:48;3.08;;;1.95;;
11439;SDS011;5776;51.814;4.510;2022-07-29T13:28:14;7.93;;;2.00;;
11439;SDS011;5776;51.814;4.510;2022-07-29T13:30:40;7.10;;;2.22;;
11439;SDS011;5776;51.814;4.510;2022-07-29T13:33:09;4.75;;;1.70;;
11439;SDS011;5776;51.814;4.510;2022-07-29T13:35:35;5.93;;;2.20;;
11439;SDS011;5776;51.814;4.510;2022-07-29T13:38:00;10.40;;;2.60;;
11439;SDS011;5776;51.814;4.510;2022-07-29T13:40:26;6.95;;;1.75;;
11439;SDS011;5776;51.814;4.510;2022-07-29T13:42:54;7.40;;;2.10;;
11439;SDS011;5776;51.814;4.510;2022-07-29T13:45:20;3.78;;;1.67;;
11439;SDS011;5776;51.814;4.510;2022-07-29T13:47:46;7.57;;;2.20;;
11439;SDS011;5776;51.814;4.510;2022-07-29T13:50:12;8.57;;;2.67;;
11439;SDS011;5776;51.814;4.510;2022-07-29T13:52:38;4.50;;;1.90;;
11439;SDS011;5776;51.814;4.510;2022-07-29T13:55:04;4.80;;;1.52;;
11439;SDS011;5776;51.814;4.510;2022-07-29T13:57:30;4.72;;;2.10;;
11439;SDS011;5776;51.814;4.510;2022-07-29T13:59:56;5.88;;;1.80;;
11439;SDS011;5776;51.814;4.510;2022-07-29T14:02:22;8.43;;;2.13;;
11439;SDS011;5776;51.814;4.510;2022-07-29T14:04:48;6.28;;;2.58;;
11439;SDS011;5776;51.814;4.510;2022-07-29T14:07:14;6.03;;;2.13;;
11439;SDS011;5776;51.814;4.510;2022-07-29T14:09:40;5.70;;;2.67;;
11439;SDS011;5776;51.814;4.510;2022-07-29T14:12:07;15.10;;;2.30;;
11439;SDS011;5776;51.814;4.510;2022-07-29T14:14:33;6.78;;;3.30;;
11439;SDS011;5776;51.814;4.510;2022-07-29T14:17:00;5.28;;;2.80;;
11439;SDS011;5776;51.814;4.510;2022-07-29T14:19:28;10.48;;;2.78;;
11439;SDS011;5776;51.814;4.510;2022-07-29T14:21:54;11.40;;;2.65;;
11439;SDS011;5776;51.814;4.510;2022-07-29T14:24:20;6.43;;;2.63;;
11439;SDS011;5776;51.814;4.510;2022-07-29T14:26:46;7.93;;;2.10;;
11439;SDS011;5776;51.814;4.510;2022-07-29T14:29:12;8.88;;;2.78;;
11439;SDS011;5776;51.814;4.510;2022-07-29T14:31:38;4.13;;;1.83;;
11439;SDS011;5776;51.814;4.510;2022-07-29T14:34:04;6.78;;;1.90;;
11439;SDS011;5776;51.814;4.510;2022-07-29T14:36:30;6.43;;;1.90;;
11439;SDS011;5776;51.814;4.510;2022-07-29T14:38:55;5.18;;;2.13;;
11439;SDS011;5776;51.814;4.510;2022-07-29T14:41:21;8.65;;;2.30;;
11439;SDS011;5776;51.814;4.510;2022-07-29T14:43:47;4.90;;;1.75;;
11439;SDS011;5776;51.814;4.510;2022-07-29T14:46:13;6.13;;;1.92;;
11439;SDS011;5776;51.814;4.510;2022-07-29T14:48:39;7.25;;;2.53;;
11439;SDS011;5776;51.814;4.510;2022-07-29T14:51:05;5.20;;;1.73;;
11439;SDS011;5776;51.814;4.510;2022-07-29T14:53:31;7.90;;;1.80;;
11439;SDS011;5776;51.814;4.510;2022-07-29T14:55:58;4.57;;;1.90;;
11439;SDS011;5776;51.814;4.510;2022-07-29T14:58:24;8.07;;;1.73;;
11439;SDS011;5776;51.814;4.510;2022-07-29T15:00:50;5.93;;;2.03;;
11439;SDS011;5776;51.814;4.510;2022-07-29T15:03:16;6.78;;;1.90;;
11439;SDS011;5776;51.814;4.510;2022-07-29T15:05:42;5.35;;;1.35;;
11439;SDS011;5776;51.814;4.510;2022-07-29T15:08:08;5.45;;;1.98;;
11439;SDS011;5776;51.814;4.510;2022-07-29T15:10:34;5.72;;;1.77;;
11439;SDS011;5776;51.814;4.510;2022-07-29T15:13:00;7.72;;;1.73;;
11439;SDS011;5776;51.814;4.510;2022-07-29T15:15:26;7.25;;;1.65;;
11439;SDS011;5776;51.814;4.510;2022-07-29T15:17:52;5.13;;;1.70;;
11439;SDS011;5776;51.814;4.510;2022-07-29T15:20:18;6.28;;;1.60;;
11439;SDS011;5776;51.814;4.510;2022-07-29T15:22:44;6.32;;;1.70;;
11439;SDS011;5776;51.814;4.510;2022-07-29T15:25:10;4.40;;;1.65;;
11439;SDS011;5776;51.814;4.510;2022-07-29T15:27:36;4.72;;;1.90;;
11439;SDS011;5776;51.814;4.510;2022-07-29T15:30:02;7.18;;;1.83;;
11439;SDS011;5776;51.814;4.510;2022-07-29T15:32:28;6.72;;;1.90;;
11439;SDS011;5776;51.814;4.510;2022-07-29T15:34:54;6.53;;;2.28;;
11439;SDS011;5776;51.814;4.510;2022-07-29T15:37:20;6.97;;;2.05;;
11439;SDS011;5776;51.814;4.510;2022-07-29T15:39:46;3.92;;;1.58;;
11439;SDS011;5776;51.814;4.510;2022-07-29T15:42:12;6.32;;;1.45;;
11439;SDS011;5776;51.814;4.510;2022-07-29T15:44:38;9.27;;;1.63;;
11439;SDS011;5776;51.814;4.510;2022-07-29T15:47:04;7.80;;;2.00;;
11439;SDS011;5776;51.814;4.510;2022-07-29T15:49:33;4.22;;;1.58;;
11439;SDS011;5776;51.814;4.510;2022-07-29T15:52:01;9.90;;;2.17;;
11439;SDS011;5776;51.814;4.510;2022-07-29T15:54:31;8.00;;;2.00;;